Terminal Aerodrome Forecast
Issued by NWS

Home | Current Version | Previous Version | Text Only | Print | Product List | Glossary On
Versions: 1 2 3 4 5 6 7 8 9 10 11 12 13
000
FTUS43 KDTX 242323
TAFPTK
TAF
KPTK 242323Z 2500/2524 20013KT P6SM BKN200
     FM250800 23008KT P6SM SCT018 BKN030 OVC060
     FM251100 28010KT P6SM SCT012 OVC022
     FM251700 30013G20KT P6SM BKN035=

USA.gov is the U.S. government's official web portal to all federal, state and local government web resources and services.